createdAt,value
2019-05-20T00:00:18.047Z,19.98
2019-05-20T00:02:47.532Z,19.91
2019-05-20T00:05:17.081Z,19.84
2019-05-20T00:07:46.564Z,19.84
2019-05-20T00:10:16.076Z,19.86
2019-05-20T00:12:45.573Z,19.89
2019-05-20T00:15:15.177Z,19.79
2019-05-20T00:17:44.705Z,19.71
2019-05-20T00:20:14.292Z,19.63
2019-05-20T00:22:43.816Z,19.63
2019-05-20T00:25:13.406Z,19.48
2019-05-20T00:27:42.917Z,19.43
2019-05-20T00:30:12.866Z,19.45
2019-05-20T00:32:42.677Z,19.52
2019-05-20T00:35:12.253Z,19.55
2019-05-20T00:37:42.733Z,19.40
2019-05-20T00:40:12.364Z,19.23
2019-05-20T00:42:41.854Z,19.17
2019-05-20T00:45:11.778Z,19.16
2019-05-20T00:47:41.294Z,19.17
2019-05-20T00:50:10.897Z,19.20
2019-05-20T00:52:40.480Z,19.11
2019-05-20T00:55:26.825Z,19.10
2019-05-20T00:57:56.352Z,19.07
2019-05-20T01:00:25.943Z,18.88
2019-05-20T01:02:57.303Z,18.86
2019-05-20T01:05:26.694Z,18.93
2019-05-20T01:07:56.195Z,18.97
2019-05-20T01:10:25.721Z,18.96
2019-05-20T01:12:56.200Z,18.99
2019-05-20T01:15:26.401Z,19.00
2019-05-20T01:17:55.922Z,18.78
2019-05-20T01:20:25.477Z,18.45
2019-05-20T01:22:54.956Z,18.30
2019-05-20T01:25:25.451Z,18.32
2019-05-20T01:27:54.966Z,18.36
2019-05-20T01:30:24.935Z,18.27
2019-05-20T01:32:54.458Z,18.33
2019-05-20T01:35:23.956Z,18.42
2019-05-20T01:37:53.485Z,18.54
2019-05-20T01:40:22.992Z,18.48
2019-05-20T01:42:52.524Z,18.43
2019-05-20T01:45:22.050Z,18.46
2019-05-20T01:47:51.593Z,18.52
2019-05-20T01:50:21.093Z,18.53
2019-05-20T01:52:50.602Z,18.52
2019-05-20T01:55:20.145Z,18.48
2019-05-20T01:57:49.663Z,18.39
2019-05-20T02:00:19.447Z,18.18
2019-05-20T02:02:48.957Z,18.21
2019-05-20T02:05:18.567Z,18.18
2019-05-20T02:07:48.074Z,18.18
2019-05-20T02:10:17.595Z,18.18
2019-05-20T02:12:47.101Z,18.21
2019-05-20T02:15:40.557Z,18.24
2019-05-20T02:18:10.105Z,18.27
2019-05-20T02:20:39.639Z,18.22
2019-05-20T02:23:15.734Z,18.19
2019-05-20T02:25:49.698Z,18.22
2019-05-20T02:28:20.215Z,18.21
2019-05-20T02:30:49.744Z,18.21
2019-05-20T02:33:19.253Z,18.21
2019-05-20T02:35:48.772Z,18.22
2019-05-20T02:38:18.299Z,18.26
2019-05-20T02:40:47.811Z,18.34
2019-05-20T02:43:17.423Z,18.24
2019-05-20T02:45:46.949Z,18.24
2019-05-20T02:48:16.534Z,18.12
2019-05-20T02:50:46.048Z,18.08
2019-05-20T02:53:15.563Z,18.06
2019-05-20T02:55:45.092Z,18.07
2019-05-20T02:58:14.611Z,18.00
2019-05-20T03:00:44.182Z,18.02
2019-05-20T03:03:14.246Z,18.08
2019-05-20T03:05:43.922Z,18.06
2019-05-20T03:08:13.451Z,17.97
2019-05-20T03:10:42.962Z,17.78
2019-05-20T03:13:12.473Z,17.66
2019-05-20T03:15:41.973Z,17.66
2019-05-20T03:18:11.503Z,17.80
2019-05-20T03:20:41.007Z,17.79
2019-05-20T03:23:10.532Z,17.82
2019-05-20T03:25:40.073Z,17.63
2019-05-20T03:28:09.876Z,17.48
2019-05-20T03:30:39.455Z,17.12
2019-05-20T03:33:09.091Z,17.55
2019-05-20T03:35:39.607Z,17.50
2019-05-20T03:38:10.170Z,17.47
2019-05-20T03:40:39.706Z,17.54
2019-05-20T03:43:09.219Z,17.60
2019-05-20T03:45:38.753Z,17.53
2019-05-20T03:48:08.283Z,17.33
2019-05-20T03:50:37.820Z,17.55
2019-05-20T03:53:07.337Z,17.55
2019-05-20T03:55:36.842Z,17.66
2019-05-20T03:58:06.365Z,17.70
2019-05-20T04:00:44.447Z,17.73
2019-05-20T04:03:14.794Z,17.73
2019-05-20T04:05:44.523Z,17.62
2019-05-20T04:08:14.041Z,17.49
2019-05-20T04:10:43.543Z,17.44
2019-05-20T04:13:13.063Z,17.51
2019-05-20T04:15:42.580Z,17.45
2019-05-20T04:18:12.312Z,17.25
2019-05-20T04:20:41.837Z,17.30
2019-05-20T04:23:11.383Z,17.25
2019-05-20T04:25:40.880Z,17.16
2019-05-20T04:28:10.405Z,17.23
2019-05-20T04:30:39.955Z,17.32
2019-05-20T04:33:09.465Z,17.37
2019-05-20T04:35:39.997Z,17.47
2019-05-20T04:38:09.518Z,17.51
2019-05-20T04:40:39.026Z,17.51
2019-05-20T04:43:08.554Z,17.47
2019-05-20T04:45:38.091Z,17.41
2019-05-20T04:48:07.620Z,17.28
2019-05-20T04:50:37.124Z,17.23
2019-05-20T04:53:06.625Z,17.25
2019-05-20T04:55:36.147Z,17.26
2019-05-20T04:58:05.658Z,17.25
2019-05-20T05:00:53.642Z,17.31
2019-05-20T05:03:23.785Z,17.48
2019-05-20T05:05:53.288Z,17.47
2019-05-20T05:08:23.087Z,17.51
2019-05-20T05:10:52.694Z,17.54
2019-05-20T05:13:22.782Z,17.58
2019-05-20T05:15:52.307Z,17.56
2019-05-20T05:18:22.189Z,17.65
2019-05-20T05:20:51.764Z,17.64
2019-05-20T05:23:21.690Z,17.61
2019-05-20T05:25:51.191Z,17.67
2019-05-20T05:28:20.789Z,17.69
2019-05-20T05:30:50.376Z,17.75
2019-05-20T05:33:19.913Z,17.74
2019-05-20T05:35:53.123Z,17.81
2019-05-20T05:38:20.918Z,17.76
2019-05-20T05:40:50.430Z,17.82
2019-05-20T05:43:19.944Z,17.89
2019-05-20T05:45:49.464Z,17.88
2019-05-20T05:48:18.960Z,17.97
2019-05-20T05:50:48.474Z,17.98
2019-05-20T05:53:17.981Z,18.02
2019-05-20T05:55:47.481Z,18.04
2019-05-20T05:58:16.978Z,18.01
2019-05-20T06:00:46.482Z,18.04
2019-05-20T06:03:15.992Z,18.09
2019-05-20T06:05:45.500Z,18.06
2019-05-20T06:08:15.993Z,18.06
2019-05-20T06:10:45.492Z,18.14
2019-05-20T06:13:15.073Z,18.06
2019-05-20T06:15:44.560Z,18.11
2019-05-20T06:18:14.137Z,18.18
2019-05-20T06:20:43.647Z,18.21
2019-05-20T06:23:13.177Z,18.26
2019-05-20T06:25:42.681Z,18.38
2019-05-20T06:28:12.210Z,18.34
2019-05-20T06:30:43.921Z,18.34
2019-05-20T06:33:13.532Z,18.22
2019-05-20T06:35:43.324Z,18.32
2019-05-20T06:38:34.884Z,18.37
2019-05-20T06:41:04.983Z,18.39
2019-05-20T06:43:34.510Z,18.36
2019-05-20T06:46:04.111Z,18.39
2019-05-20T06:48:33.607Z,18.55
2019-05-20T06:51:03.118Z,18.61
2019-05-20T06:53:32.617Z,18.56
2019-05-20T06:56:02.131Z,18.60
2019-05-20T06:58:31.640Z,18.68
2019-05-20T07:01:01.137Z,18.73
2019-05-20T07:03:30.644Z,18.70
2019-05-20T07:06:00.229Z,18.67
2019-05-20T07:08:29.743Z,18.65
2019-05-20T07:10:59.283Z,18.70
2019-05-20T07:13:29.098Z,18.77
2019-05-20T07:15:58.635Z,18.86
2019-05-20T07:18:28.125Z,18.91
2019-05-20T07:20:57.643Z,19.00
2019-05-20T07:23:27.154Z,19.01
2019-05-20T07:25:56.652Z,19.05
2019-05-20T07:28:26.148Z,19.19
2019-05-20T07:30:55.703Z,19.19
2019-05-20T07:33:25.201Z,19.26
2019-05-20T07:35:54.755Z,19.38
2019-05-20T07:38:24.357Z,19.29
2019-05-20T07:40:53.868Z,19.16
2019-05-20T07:43:23.377Z,19.12
2019-05-20T07:45:52.972Z,19.20
2019-05-20T07:48:22.595Z,19.12
2019-05-20T07:50:52.626Z,19.20
2019-05-20T07:53:22.293Z,19.29
2019-05-20T07:55:59.952Z,19.44
2019-05-20T07:58:33.634Z,19.46
2019-05-20T08:01:02.080Z,19.41
2019-05-20T08:03:31.673Z,19.46
2019-05-20T08:06:01.180Z,19.55
2019-05-20T08:08:30.710Z,19.60
2019-05-20T08:11:00.256Z,19.66
2019-05-20T08:13:29.839Z,19.77
2019-05-20T08:16:00.322Z,19.88
2019-05-20T08:18:29.896Z,19.90
2019-05-20T08:20:59.548Z,20.01
2019-05-20T08:23:29.121Z,20.02
2019-05-20T08:25:58.790Z,20.16
2019-05-20T08:28:28.317Z,20.27
2019-05-20T08:30:58.050Z,20.34
2019-05-20T08:33:27.666Z,20.50
2019-05-20T08:35:57.242Z,20.63
2019-05-20T08:38:26.748Z,20.67
2019-05-20T08:40:56.338Z,20.67
2019-05-20T08:43:25.896Z,20.60
2019-05-20T08:45:55.510Z,20.74
2019-05-20T08:48:26.747Z,20.82
2019-05-20T08:50:56.270Z,20.92
2019-05-20T08:53:26.868Z,21.04
2019-05-20T08:55:56.426Z,20.75
2019-05-20T08:58:25.966Z,21.00
2019-05-20T09:00:55.643Z,21.04
2019-05-20T09:03:30.348Z,21.04
2019-05-20T09:05:56.674Z,21.13
2019-05-20T09:08:26.219Z,21.26
2019-05-20T09:10:55.768Z,21.33
2019-05-20T09:13:27.205Z,21.34
2019-05-20T09:15:56.766Z,21.43
2019-05-20T09:18:26.301Z,21.47
2019-05-20T09:20:57.530Z,21.62
2019-05-20T09:23:27.102Z,21.72
2019-05-20T09:25:56.634Z,21.85
2019-05-20T09:28:26.384Z,21.83
2019-05-20T09:30:56.100Z,21.82
2019-05-20T09:33:25.896Z,21.23
2019-05-20T09:35:57.864Z,22.01
2019-05-20T09:38:27.621Z,21.92
2019-05-20T09:40:57.107Z,21.93
2019-05-20T09:43:26.625Z,22.14
2019-05-20T09:46:07.835Z,22.29
2019-05-20T09:48:30.766Z,22.53
2019-05-20T09:51:00.317Z,22.65
2019-05-20T09:53:29.831Z,22.79
2019-05-20T09:55:59.337Z,22.90
2019-05-20T09:58:28.858Z,22.91
2019-05-20T10:00:58.438Z,22.88
2019-05-20T10:03:27.956Z,22.95
2019-05-20T10:05:57.459Z,22.99
2019-05-20T10:08:37.665Z,23.07
2019-05-20T10:10:59.812Z,23.17
2019-05-20T10:13:29.464Z,23.18
2019-05-20T10:15:59.019Z,23.27
2019-05-20T10:18:37.408Z,23.44
2019-05-20T10:20:59.823Z,23.51
2019-05-20T10:23:29.378Z,23.66
2019-05-20T10:25:58.967Z,23.81
2019-05-20T10:28:28.543Z,24.06
2019-05-20T10:30:58.076Z,24.23
2019-05-20T10:35:55.937Z,24.38
2019-05-20T10:38:26.517Z,24.26
2019-05-20T10:40:56.143Z,24.32
2019-05-20T10:43:25.749Z,24.29
2019-05-20T10:45:55.292Z,24.35
2019-05-20T10:48:24.880Z,24.55
2019-05-20T10:50:57.980Z,24.65
2019-05-20T10:53:28.434Z,24.72
2019-05-20T10:55:58.815Z,24.68
2019-05-20T10:58:28.542Z,24.57
2019-05-20T11:01:03.531Z,24.70
2019-05-20T11:03:29.442Z,24.75
2019-05-20T11:05:58.990Z,24.67
2019-05-20T11:08:28.540Z,24.80
2019-05-20T11:10:58.077Z,24.90
2019-05-20T11:13:27.677Z,24.97
2019-05-20T11:15:57.267Z,24.89
2019-05-20T11:18:26.781Z,24.97
2019-05-20T11:20:56.791Z,24.95
2019-05-20T11:23:26.407Z,24.99
2019-05-20T11:25:55.945Z,25.23
2019-05-20T11:28:25.466Z,25.30
2019-05-20T11:30:55.027Z,25.43
2019-05-20T11:33:24.571Z,25.64
2019-05-20T11:35:54.158Z,25.66
2019-05-20T11:38:23.675Z,25.55
2019-05-20T11:40:53.179Z,25.52
2019-05-20T11:43:22.736Z,25.56
2019-05-20T11:45:52.282Z,25.52
2019-05-20T11:48:22.831Z,25.51
2019-05-20T11:50:52.524Z,25.47
2019-05-20T11:53:22.157Z,25.37
2019-05-20T11:55:51.848Z,25.20
2019-05-20T11:58:21.341Z,25.56
2019-05-20T12:00:50.900Z,25.80
2019-05-20T12:03:20.454Z,25.64
2019-05-20T12:05:50.060Z,25.56
2019-05-20T12:08:19.780Z,25.26
2019-05-20T12:10:49.301Z,25.12
2019-05-20T12:13:18.827Z,25.71
2019-05-20T12:15:48.347Z,25.71
2019-05-20T12:18:17.894Z,25.74
2019-05-20T12:20:47.394Z,25.96
2019-05-20T12:23:16.917Z,26.01
2019-05-20T12:25:46.489Z,26.14
2019-05-20T12:28:15.965Z,26.36
2019-05-20T12:30:45.484Z,26.28
2019-05-20T12:33:19.092Z,26.29
2019-05-20T12:35:48.322Z,26.38
2019-05-20T12:38:17.877Z,26.43
2019-05-20T12:40:48.258Z,26.36
2019-05-20T12:43:19.152Z,26.12
2019-05-20T12:45:48.669Z,25.93
2019-05-20T12:48:18.241Z,26.02
2019-05-20T12:50:47.753Z,25.76
2019-05-20T12:53:17.535Z,26.31
2019-05-20T12:55:47.080Z,26.41
2019-05-20T12:58:16.811Z,26.26
2019-05-20T13:00:46.352Z,26.36
2019-05-20T13:03:15.877Z,26.56
2019-05-20T13:05:45.397Z,26.84
2019-05-20T13:08:14.937Z,26.89
2019-05-20T13:10:44.432Z,26.39
2019-05-20T13:13:13.956Z,26.64
2019-05-20T13:15:43.482Z,26.64
2019-05-20T13:18:12.995Z,26.94
2019-05-20T13:20:42.620Z,26.61
2019-05-20T13:23:14.231Z,26.30
2019-05-20T13:25:43.465Z,25.98
2019-05-20T13:28:13.009Z,26.16
2019-05-20T13:30:42.558Z,26.27
2019-05-20T13:33:12.078Z,26.32
2019-05-20T13:35:41.639Z,26.10
2019-05-20T13:38:11.197Z,25.82
2019-05-20T13:40:46.303Z,25.11
2019-05-20T13:43:12.006Z,25.92
2019-05-20T13:45:42.519Z,25.96
2019-05-20T13:48:12.019Z,26.06
2019-05-20T13:50:41.544Z,26.09
2019-05-20T13:53:11.085Z,26.08
2019-05-20T13:55:40.608Z,26.16
2019-05-20T13:58:10.128Z,26.26
2019-05-20T14:00:39.650Z,26.16
2019-05-20T14:03:09.236Z,26.00
2019-05-20T14:05:38.797Z,26.06
2019-05-20T14:08:08.459Z,25.74
2019-05-20T14:10:37.951Z,25.74
2019-05-20T14:13:07.559Z,26.00
2019-05-20T14:15:38.158Z,25.85
2019-05-20T14:18:07.727Z,25.65
2019-05-20T14:20:37.256Z,25.76
2019-05-20T14:23:06.765Z,26.17
2019-05-20T14:25:36.303Z,26.19
2019-05-20T14:28:05.824Z,26.10
2019-05-20T14:30:35.399Z,25.94
2019-05-20T14:33:04.959Z,26.17
2019-05-20T14:35:34.471Z,26.11
2019-05-20T14:38:04.000Z,26.20
2019-05-20T14:40:34.120Z,26.15
2019-05-20T14:43:04.607Z,25.82
2019-05-20T14:45:34.171Z,25.82
2019-05-20T14:48:03.793Z,25.53
2019-05-20T14:50:33.440Z,25.43
2019-05-20T14:53:02.970Z,25.48
2019-05-20T14:55:41.810Z,25.52
2019-05-20T14:58:03.773Z,25.37
2019-05-20T15:00:33.370Z,25.39
2019-05-20T15:03:02.897Z,25.23
2019-05-20T15:05:32.469Z,25.24
2019-05-20T15:08:01.970Z,25.27
2019-05-20T15:10:31.497Z,25.20
2019-05-20T15:13:01.002Z,24.93
2019-05-20T15:15:30.806Z,24.94
2019-05-20T15:18:00.320Z,24.91
2019-05-20T15:20:29.896Z,24.99
2019-05-20T15:22:59.399Z,24.85
2019-05-20T15:25:28.935Z,24.82
2019-05-20T15:27:58.464Z,24.58
2019-05-20T15:30:28.000Z,24.31
2019-05-20T15:32:57.524Z,24.49
2019-05-20T15:35:27.040Z,24.56
2019-05-20T15:37:56.662Z,24.60
2019-05-20T15:40:27.137Z,24.56
2019-05-20T15:42:56.659Z,24.49
2019-05-20T15:45:26.210Z,24.59
2019-05-20T15:47:55.719Z,24.38
2019-05-20T15:50:25.278Z,24.40
2019-05-20T15:52:55.041Z,24.29
2019-05-20T15:55:24.594Z,24.39
2019-05-20T15:57:54.132Z,24.36
2019-05-20T16:00:23.766Z,24.51
2019-05-20T16:02:53.322Z,24.53
2019-05-20T16:05:22.871Z,24.44
2019-05-20T16:07:52.396Z,24.55
2019-05-20T16:10:22.823Z,24.54
2019-05-20T16:12:52.349Z,24.39
2019-05-20T16:15:21.960Z,24.42
2019-05-20T16:17:51.513Z,24.66
2019-05-20T16:20:21.155Z,24.69
2019-05-20T16:22:50.713Z,24.76
2019-05-20T16:25:20.307Z,24.87
2019-05-20T16:27:50.120Z,24.93
2019-05-20T16:30:23.461Z,24.95
2019-05-20T16:32:53.016Z,25.06
2019-05-20T16:35:22.535Z,25.10
2019-05-20T16:37:53.686Z,25.03
2019-05-20T16:40:23.264Z,25.00
2019-05-20T16:42:53.176Z,25.06
2019-05-20T16:45:22.808Z,25.11
2019-05-20T16:47:52.348Z,25.10
2019-05-20T16:50:21.941Z,25.02
2019-05-20T16:52:51.527Z,25.02
2019-05-20T16:55:21.066Z,25.07
2019-05-20T16:57:50.768Z,25.04
2019-05-20T17:00:31.371Z,25.02
2019-05-20T17:02:51.711Z,24.90
2019-05-20T17:05:21.223Z,24.94
2019-05-20T17:07:50.809Z,24.81
2019-05-20T17:10:20.322Z,24.70
2019-05-20T17:12:49.849Z,24.64
2019-05-20T17:15:20.270Z,24.68
2019-05-20T17:17:49.808Z,24.48
2019-05-20T17:20:19.324Z,24.65
2019-05-20T17:22:48.846Z,24.63
2019-05-20T17:25:19.450Z,24.58
2019-05-20T17:27:48.967Z,24.56
2019-05-20T17:30:18.573Z,24.56
2019-05-20T17:32:48.091Z,24.39
2019-05-20T17:35:17.766Z,24.28
2019-05-20T17:37:47.312Z,23.90
2019-05-20T17:40:19.272Z,23.76
2019-05-20T17:42:48.887Z,23.38
2019-05-20T17:45:20.517Z,23.31
2019-05-20T17:47:50.727Z,23.44
2019-05-20T17:50:20.519Z,23.34
2019-05-20T17:52:50.277Z,23.38
2019-05-20T17:55:19.986Z,23.33
2019-05-20T17:57:49.496Z,23.51
2019-05-20T18:00:25.209Z,23.60
2019-05-20T18:02:58.740Z,23.60
2019-05-20T18:05:33.089Z,23.48
2019-05-20T18:08:06.473Z,23.34
2019-05-20T18:10:39.060Z,23.29
2019-05-20T18:13:08.603Z,23.25
2019-05-20T18:15:38.114Z,23.34
2019-05-20T18:18:09.671Z,23.42
2019-05-20T18:20:39.287Z,23.32
2019-05-20T18:23:08.816Z,23.29
2019-05-20T18:25:38.406Z,23.27
2019-05-20T18:28:07.980Z,23.38
2019-05-20T18:30:37.631Z,23.22
2019-05-20T18:33:07.246Z,23.15
2019-05-20T18:35:36.751Z,22.94
2019-05-20T18:38:06.256Z,22.88
2019-05-20T18:40:36.117Z,23.13
2019-05-20T18:43:05.685Z,23.15
2019-05-20T18:45:35.218Z,23.05
2019-05-20T18:48:04.814Z,23.00
2019-05-20T18:50:34.355Z,22.89
2019-05-20T18:53:03.920Z,22.88
2019-05-20T18:55:34.992Z,23.01
2019-05-20T18:58:04.731Z,22.87
2019-05-20T19:00:34.276Z,22.69
2019-05-20T19:03:03.812Z,22.51
2019-05-20T19:05:33.313Z,22.38
2019-05-20T19:08:02.849Z,22.23
2019-05-20T19:10:32.372Z,22.21
2019-05-20T19:13:01.899Z,22.00
2019-05-20T19:15:31.542Z,22.00
2019-05-20T19:18:01.883Z,21.67
2019-05-20T19:20:32.375Z,21.75
2019-05-20T19:23:01.962Z,21.61
2019-05-20T19:25:37.898Z,21.34
2019-05-20T19:28:02.868Z,21.26
2019-05-20T19:30:32.385Z,21.38
2019-05-20T19:33:01.904Z,21.29
2019-05-20T19:35:31.434Z,21.33
2019-05-20T19:38:01.061Z,21.19
2019-05-20T19:40:30.644Z,21.13
2019-05-20T19:43:00.171Z,20.88
2019-05-20T19:45:29.792Z,20.55
2019-05-20T19:47:59.366Z,20.57
2019-05-20T19:50:28.923Z,20.93
2019-05-20T19:52:58.509Z,20.89
2019-05-20T19:55:28.142Z,20.73
2019-05-20T19:57:58.106Z,20.49
2019-05-20T20:00:29.199Z,20.36
2019-05-20T20:02:58.791Z,20.23
2019-05-20T20:05:28.355Z,20.42
2019-05-20T20:07:58.492Z,20.47
2019-05-20T20:10:28.098Z,20.51
2019-05-20T20:12:57.729Z,20.56
2019-05-20T20:15:27.617Z,20.43
2019-05-20T20:17:57.313Z,20.52
2019-05-20T20:20:26.873Z,20.60
2019-05-20T20:22:56.554Z,20.44
2019-05-20T20:25:26.094Z,20.45
2019-05-20T20:27:58.587Z,20.36
2019-05-20T20:30:28.079Z,20.29
2019-05-20T20:32:57.735Z,20.19
2019-05-20T20:35:37.646Z,20.31
2019-05-20T20:37:58.936Z,20.54
2019-05-20T20:40:28.489Z,20.28
2019-05-20T20:42:58.153Z,20.42
2019-05-20T20:45:28.039Z,20.39
2019-05-20T20:47:57.645Z,20.17
2019-05-20T20:50:27.329Z,20.45
2019-05-20T20:52:56.885Z,20.29
2019-05-20T20:55:26.485Z,20.12
2019-05-20T20:57:56.004Z,20.22
2019-05-20T21:00:25.581Z,20.30
2019-05-20T21:02:55.131Z,20.40
2019-05-20T21:05:25.617Z,20.50
2019-05-20T21:07:55.215Z,20.51
2019-05-20T21:10:24.730Z,20.05
2019-05-20T21:12:54.302Z,20.06
2019-05-20T21:15:23.910Z,20.00
2019-05-20T21:17:53.422Z,19.76
2019-05-20T21:20:23.000Z,19.97
2019-05-20T21:22:52.556Z,20.16
2019-05-20T21:25:25.714Z,19.92
2019-05-20T21:27:55.236Z,19.97
2019-05-20T21:30:24.828Z,19.95
2019-05-20T21:33:08.316Z,19.92
2019-05-20T21:35:25.607Z,19.44
2019-05-20T21:37:55.130Z,19.27
2019-05-20T21:40:24.676Z,18.93
2019-05-20T21:42:54.142Z,18.85
2019-05-20T21:45:23.663Z,18.74
2019-05-20T21:47:53.181Z,18.60
2019-05-20T21:50:22.693Z,18.59
2019-05-20T21:52:52.195Z,18.48
2019-05-20T21:55:22.398Z,18.69
2019-05-20T21:57:51.906Z,18.93
2019-05-20T22:00:27.499Z,19.06
2019-05-20T22:02:58.570Z,19.01
2019-05-20T22:05:28.089Z,18.87
2019-05-20T22:07:57.670Z,18.97
2019-05-20T22:10:27.167Z,18.54
2019-05-20T22:12:56.668Z,18.76
2019-05-20T22:15:26.175Z,18.78
2019-05-20T22:17:55.699Z,18.51
2019-05-20T22:20:25.200Z,18.60
2019-05-20T22:23:12.780Z,18.52
2019-05-20T22:25:42.367Z,18.76
2019-05-20T22:28:12.957Z,18.66
2019-05-20T22:30:42.678Z,18.64
2019-05-20T22:33:12.236Z,18.32
2019-05-20T22:35:41.738Z,18.67
2019-05-20T22:38:11.363Z,18.45
2019-05-20T22:40:40.882Z,18.53
2019-05-20T22:43:10.380Z,18.66
2019-05-20T22:45:39.901Z,18.72
2019-05-20T22:48:09.397Z,18.63
2019-05-20T22:50:38.902Z,18.78
2019-05-20T22:53:08.503Z,18.72
2019-05-20T22:55:38.001Z,18.72
2019-05-20T22:58:07.513Z,18.45
2019-05-20T23:00:37.037Z,18.27
2019-05-20T23:03:06.535Z,18.49
2019-05-20T23:05:36.047Z,18.40
2019-05-20T23:08:05.565Z,18.52
2019-05-20T23:10:35.078Z,18.61
2019-05-20T23:13:04.571Z,18.40
2019-05-20T23:15:34.081Z,18.69
2019-05-20T23:18:03.573Z,18.55
2019-05-20T23:20:33.089Z,18.55
2019-05-20T23:23:02.599Z,18.48
2019-05-20T23:25:32.481Z,18.33
2019-05-20T23:28:02.974Z,18.24
2019-05-20T23:30:32.499Z,18.10
2019-05-20T23:33:02.005Z,17.85
2019-05-20T23:35:31.510Z,17.77
2019-05-20T23:38:01.014Z,17.94
2019-05-20T23:40:30.542Z,17.64
2019-05-20T23:43:00.030Z,17.99
2019-05-20T23:45:29.549Z,17.91
2019-05-20T23:47:59.057Z,18.08
2019-05-20T23:50:28.557Z,18.05
2019-05-20T23:52:58.063Z,18.24
2019-05-20T23:55:27.561Z,18.20
2019-05-20T23:57:57.060Z,18.23
